Time;durP1;ratioP1;P1;durP2;ratioP2;P2;SDS_P1;SDS_P2;PMS_P1;PMS_P2;Temp;Humidity;BMP_temperature;BMP_pressure;BME280_temperature;BME280_humidity;BME280_pressure;Samples;Min_cycle;Max_cycle;Signal;HPM_P1;HPM_P2
2024/03/05 00:00:10;;;;;;;115.07;51.28;;;9.50;99.90;;;;;;5074184;28;20182;-70
2024/03/05 00:02:42;;;;;;;120.47;51.15;;;9.50;99.90;;;;;;5087199;28;20322;-70
2024/03/05 00:05:09;;;;;;;116.03;50.88;;;9.50;99.90;;;;;;5095741;28;20259;-69
2024/03/05 00:07:35;;;;;;;115.15;49.25;;;9.50;99.90;;;;;;5075085;28;20192;-70
2024/03/05 00:10:02;;;;;;;115.15;50.63;;;9.50;99.90;;;;;;5094687;28;20181;-70
2024/03/05 00:12:29;;;;;;;118.22;50.00;;;9.50;99.90;;;;;;5092182;28;20189;-70
2024/03/05 00:14:55;;;;;;;137.27;54.03;;;9.50;99.90;;;;;;5088837;28;20182;-71
2024/03/05 00:17:23;;;;;;;139.43;54.35;;;9.50;99.90;;;;;;5094271;28;20205;-69
2024/03/05 00:19:50;;;;;;;127.13;53.22;;;9.60;99.90;;;;;;5090661;28;20216;-70
2024/03/05 00:22:16;;;;;;;145.95;56.05;;;9.60;99.90;;;;;;5092923;28;20233;-69
2024/03/05 00:24:41;;;;;;;150.25;57.50;;;9.60;99.90;;;;;;5092661;28;20319;-71
2024/03/05 00:27:09;;;;;;;148.23;56.83;;;9.60;99.90;;;;;;5092262;28;20276;-70
2024/03/05 00:29:35;;;;;;;140.38;56.50;;;9.60;99.90;;;;;;5093417;28;20193;-70
2024/03/05 00:32:00;;;;;;;148.82;59.45;;;9.60;99.90;;;;;;5087452;28;20258;-71
2024/03/05 00:34:26;;;;;;;151.18;57.83;;;9.60;99.90;;;;;;5092706;28;20193;-70
2024/03/05 00:36:52;;;;;;;132.75;55.80;;;9.70;99.90;;;;;;5094180;28;20328;-69
2024/03/05 00:39:19;;;;;;;145.57;57.33;;;9.70;99.90;;;;;;5090135;28;20221;-71
2024/03/05 00:41:46;;;;;;;137.82;56.28;;;9.70;99.90;;;;;;5090497;28;20197;-70
2024/03/05 00:44:12;;;;;;;149.15;60.72;;;9.70;99.90;;;;;;5087883;28;20201;-69
2024/03/05 00:46:37;;;;;;;149.45;58.17;;;9.70;99.90;;;;;;5092923;28;20546;-71
2024/03/05 00:49:03;;;;;;;163.85;62.38;;;9.70;99.90;;;;;;5091191;28;20186;-69
2024/03/05 00:51:29;;;;;;;160.57;61.05;;;9.70;99.90;;;;;;5096413;28;20174;-69
2024/03/05 00:53:55;;;;;;;155.43;62.25;;;9.70;99.90;;;;;;5092426;28;20180;-70
2024/03/05 00:56:21;;;;;;;177.55;68.25;;;9.70;99.90;;;;;;5098336;28;20174;-72
2024/03/05 00:58:47;;;;;;;167.15;65.20;;;9.70;99.90;;;;;;5097994;28;20209;-71
2024/03/05 01:01:12;;;;;;;165.95;62.78;;;9.70;99.90;;;;;;5093257;28;20559;-69
2024/03/05 01:03:38;;;;;;;165.35;65.88;;;9.70;99.90;;;;;;5096974;28;20178;-69
2024/03/05 01:06:06;;;;;;;161.60;62.83;;;9.70;99.90;;;;;;5095830;28;20265;-70
2024/03/05 01:08:32;;;;;;;164.00;64.85;;;9.70;99.90;;;;;;5094860;28;20216;-69
2024/03/05 01:10:59;;;;;;;181.00;67.47;;;9.70;99.90;;;;;;5096065;28;20729;-69
2024/03/05 01:13:26;;;;;;;184.20;67.75;;;9.70;99.90;;;;;;5094012;28;20250;-70
2024/03/05 01:15:52;;;;;;;174.15;67.25;;;9.60;99.90;;;;;;5094316;28;20197;-70
2024/03/05 01:18:18;;;;;;;187.57;71.18;;;9.60;99.90;;;;;;5098776;28;20182;-70
2024/03/05 01:20:44;;;;;;;196.00;72.95;;;9.60;99.90;;;;;;5094829;28;20624;-70
2024/03/05 01:23:13;;;;;;;178.75;67.97;;;9.60;99.90;;;;;;5095725;28;20657;-71
2024/03/05 01:25:39;;;;;;;222.25;76.32;;;9.60;99.90;;;;;;5093505;28;20595;-70
2024/03/05 01:28:07;;;;;;;200.98;75.72;;;9.60;99.90;;;;;;5093051;28;20182;-71
2024/03/05 01:30:33;;;;;;;210.38;74.38;;;9.60;99.90;;;;;;5096183;28;20227;-71
2024/03/05 01:33:03;;;;;;;214.60;76.57;;;9.60;99.90;;;;;;5098657;28;20615;-71
2024/03/05 01:35:30;;;;;;;207.35;75.47;;;9.60;99.90;;;;;;5091153;28;20181;-71
2024/03/05 01:37:56;;;;;;;231.02;78.05;;;9.60;99.90;;;;;;5098352;28;20254;-70
2024/03/05 01:40:22;;;;;;;217.63;75.45;;;9.60;99.90;;;;;;5097293;28;20201;-70
2024/03/05 01:42:48;;;;;;;200.70;74.00;;;9.60;99.90;;;;;;5098130;28;20181;-71
2024/03/05 01:45:18;;;;;;;208.95;72.95;;;9.60;99.90;;;;;;5091837;28;20224;-70
2024/03/05 01:47:44;;;;;;;211.98;74.72;;;9.60;99.90;;;;;;5097232;28;20177;-69
2024/03/05 01:50:10;;;;;;;212.10;76.00;;;9.60;99.90;;;;;;5096655;28;20193;-70
2024/03/05 01:52:37;;;;;;;212.13;74.57;;;9.60;99.90;;;;;;5093922;28;20173;-70
2024/03/05 01:55:09;;;;;;;219.95;76.40;;;9.60;99.90;;;;;;5092096;28;20177;-70
2024/03/05 01:57:37;;;;;;;207.55;73.25;;;9.60;99.90;;;;;;5096573;28;20189;-71
2024/03/05 02:00:03;;;;;;;228.52;75.90;;;9.70;99.90;;;;;;5095293;28;20669;-70
2024/03/05 02:02:30;;;;;;;215.93;76.18;;;9.70;99.90;;;;;;5093108;28;20230;-69
2024/03/05 02:04:57;;;;;;;216.23;74.45;;;9.70;99.90;;;;;;5092950;28;20287;-70
2024/03/05 02:07:24;;;;;;;202.88;74.00;;;9.70;99.90;;;;;;5096596;28;20205;-70
2024/03/05 02:09:52;;;;;;;215.23;75.60;;;9.70;99.90;;;;;;5096111;28;20258;-70
2024/03/05 02:12:18;;;;;;;200.90;71.95;;;9.70;99.90;;;;;;5091628;28;20181;-70
2024/03/05 02:14:44;;;;;;;240.13;77.88;;;9.70;99.90;;;;;;5072971;28;20190;-70
2024/03/05 02:17:12;;;;;;;216.32;76.50;;;9.70;99.90;;;;;;5092494;28;20182;-71
2024/03/05 02:19:49;;;;;;;241.45;80.63;;;9.70;99.90;;;;;;5092979;28;20561;-71
2024/03/05 02:22:15;;;;;;;226.60;76.10;;;9.70;99.90;;;;;;5088030;28;20182;-70
2024/03/05 02:24:41;;;;;;;240.25;80.47;;;9.70;99.90;;;;;;5068873;28;20225;-70
2024/03/05 02:27:07;;;;;;;249.15;81.65;;;9.70;99.90;;;;;;5097511;28;20197;-70
2024/03/05 02:29:38;;;;;;;244.65;81.95;;;9.70;99.90;;;;;;5092363;28;20194;-70
2024/03/05 02:32:08;;;;;;;235.43;80.03;;;9.70;99.90;;;;;;5095972;28;20244;-70
2024/03/05 02:34:34;;;;;;;228.93;81.13;;;9.70;99.90;;;;;;5089380;28;20203;-70
2024/03/05 02:37:00;;;;;;;231.52;77.93;;;9.70;99.90;;;;;;5096348;28;20242;-69
2024/03/05 02:39:27;;;;;;;271.00;82.32;;;9.70;99.90;;;;;;5093014;28;20204;-70
2024/03/05 02:41:56;;;;;;;257.23;84.63;;;9.70;99.90;;;;;;5092198;28;20208;-69
2024/03/05 02:44:21;;;;;;;281.25;86.68;;;9.70;99.90;;;;;;5093375;28;20312;-69
2024/03/05 02:46:49;;;;;;;266.95;86.13;;;9.70;99.90;;;;;;5092780;28;20272;-70
2024/03/05 02:49:15;;;;;;;311.23;90.55;;;9.70;99.90;;;;;;5094272;28;20190;-70
2024/03/05 02:51:40;;;;;;;318.10;90.55;;;9.70;99.90;;;;;;5093727;28;20176;-70
2024/03/05 02:54:06;;;;;;;324.70;91.35;;;9.70;99.90;;;;;;5095659;28;20177;-70
2024/03/05 02:56:32;;;;;;;360.65;95.53;;;9.70;99.90;;;;;;5091945;28;20189;-71
2024/03/05 02:58:58;;;;;;;340.90;91.18;;;9.70;99.90;;;;;;5094231;28;20197;-70
2024/03/05 03:01:24;;;;;;;359.70;95.18;;;9.70;99.90;;;;;;5093596;28;20189;-69
2024/03/05 03:03:50;;;;;;;325.10;92.63;;;9.60;99.90;;;;;;5089125;28;20178;-69
2024/03/05 03:06:16;;;;;;;328.35;93.50;;;9.60;99.90;;;;;;5073698;28;20201;-70
2024/03/05 03:08:43;;;;;;;344.98;92.32;;;9.60;99.90;;;;;;5091235;28;20197;-71
2024/03/05 03:11:14;;;;;;;307.40;92.55;;;9.60;99.90;;;;;;5095309;28;20224;-70
2024/03/05 03:13:40;;;;;;;295.52;90.80;;;9.60;99.90;;;;;;5094286;28;20193;-70
2024/03/05 03:16:06;;;;;;;303.27;91.00;;;9.60;99.90;;;;;;5092467;28;20259;-69
2024/03/05 03:18:32;;;;;;;291.60;88.22;;;9.60;99.90;;;;;;5096163;28;20194;-70
2024/03/05 03:20:58;;;;;;;306.73;88.50;;;9.60;99.90;;;;;;5090975;28;20280;-70
2024/03/05 03:23:24;;;;;;;280.50;86.57;;;9.60;99.90;;;;;;5091154;28;20239;-70
2024/03/05 03:25:50;;;;;;;280.05;87.15;;;9.60;99.90;;;;;;5075144;28;20264;-69
2024/03/05 03:28:16;;;;;;;267.10;84.25;;;9.60;99.90;;;;;;5094447;28;20242;-69
2024/03/05 03:30:41;;;;;;;256.85;83.90;;;9.60;99.90;;;;;;5095045;28;20193;-69
2024/03/05 03:33:08;;;;;;;266.75;83.07;;;9.70;99.90;;;;;;5095917;28;20186;-70
2024/03/05 03:35:35;;;;;;;243.63;83.75;;;9.70;99.90;;;;;;5094738;28;20615;-69
2024/03/05 03:38:00;;;;;;;249.13;84.07;;;9.60;99.90;;;;;;5091122;28;21069;-70
2024/03/05 03:40:31;;;;;;;246.80;83.55;;;9.70;99.90;;;;;;5095575;28;20188;-69
2024/03/05 03:42:58;;;;;;;255.60;83.45;;;9.70;99.90;;;;;;5093121;28;20280;-70
2024/03/05 03:45:23;;;;;;;266.42;83.45;;;9.60;99.90;;;;;;5089684;28;20328;-71
2024/03/05 03:47:50;;;;;;;255.05;83.43;;;9.60;99.90;;;;;;5095958;28;20196;-71
2024/03/05 03:50:16;;;;;;;238.52;82.45;;;9.60;99.90;;;;;;5091262;28;20189;-71
2024/03/05 03:52:43;;;;;;;247.73;81.03;;;9.60;99.90;;;;;;5090872;28;20193;-70
2024/03/05 03:55:09;;;;;;;259.67;81.88;;;9.60;99.90;;;;;;5091877;28;20193;-70
2024/03/05 03:57:35;;;;;;;274.45;83.70;;;9.60;99.90;;;;;;5092924;28;20209;-70
2024/03/05 04:00:07;;;;;;;252.35;83.15;;;9.60;99.90;;;;;;5089769;28;20244;-71
2024/03/05 04:02:35;;;;;;;264.33;84.95;;;9.60;99.90;;;;;;5072876;28;20182;-69
2024/03/05 04:05:04;;;;;;;250.07;82.20;;;9.60;99.90;;;;;;5092812;28;20698;-69
2024/03/05 04:07:31;;;;;;;254.10;84.13;;;9.60;99.90;;;;;;5094670;28;20221;-70
2024/03/05 04:10:00;;;;;;;256.77;85.13;;;9.60;99.90;;;;;;5090007;28;20212;-71
2024/03/05 04:12:27;;;;;;;268.27;87.32;;;9.60;99.90;;;;;;5095905;28;20251;-70
2024/03/05 04:14:53;;;;;;;249.93;82.82;;;9.60;99.90;;;;;;5090094;28;20684;-71
2024/03/05 04:17:19;;;;;;;258.58;82.90;;;9.60;99.90;;;;;;5073638;28;20181;-71
2024/03/05 04:19:48;;;;;;;248.30;83.07;;;9.60;99.90;;;;;;5091092;28;20193;-71
2024/03/05 04:22:14;;;;;;;249.63;81.80;;;9.60;99.90;;;;;;5091376;28;20192;-70
2024/03/05 04:24:49;;;;;;;235.43;80.85;;;9.70;99.90;;;;;;5090994;28;20316;-70
2024/03/05 04:27:18;;;;;;;236.15;81.90;;;9.70;99.90;;;;;;5092947;28;20178;-70
2024/03/05 04:29:47;;;;;;;258.45;84.18;;;9.70;99.90;;;;;;5093062;28;20184;-69
2024/03/05 04:32:14;;;;;;;261.30;82.70;;;9.70;99.90;;;;;;5094014;28;20219;-70
2024/03/05 04:34:42;;;;;;;229.45;81.75;;;9.70;99.90;;;;;;5092660;28;20240;-69
2024/03/05 04:37:11;;;;;;;260.02;87.35;;;9.80;99.90;;;;;;5084090;28;20204;-70
2024/03/05 04:39:41;;;;;;;253.32;83.68;;;9.80;99.90;;;;;;5092882;28;20184;-71
2024/03/05 04:42:08;;;;;;;243.05;84.50;;;9.80;99.90;;;;;;5089636;28;20373;-69
2024/03/05 04:44:34;;;;;;;245.25;83.57;;;9.80;99.90;;;;;;5091631;28;20221;-70
2024/03/05 04:47:03;;;;;;;245.35;83.93;;;9.80;99.90;;;;;;5095046;28;21590;-70
2024/03/05 04:49:29;;;;;;;263.25;87.53;;;9.80;99.90;;;;;;5090704;28;20297;-70
2024/03/05 04:51:55;;;;;;;251.55;84.80;;;9.80;99.90;;;;;;5092280;28;20299;-70
2024/03/05 04:54:21;;;;;;;225.48;82.63;;;9.80;99.90;;;;;;5091486;28;20196;-69
2024/03/05 04:56:47;;;;;;;240.50;83.53;;;9.80;99.90;;;;;;5089462;28;20206;-69
2024/03/05 04:59:13;;;;;;;242.07;85.28;;;9.80;99.90;;;;;;5090474;28;20201;-70
2024/03/05 05:01:39;;;;;;;236.55;83.30;;;9.90;99.90;;;;;;5089859;28;20584;-70
2024/03/05 05:04:05;;;;;;;244.68;83.45;;;9.90;99.90;;;;;;5085496;28;20197;-70
2024/03/05 05:06:32;;;;;;;229.00;82.68;;;9.90;99.90;;;;;;5092484;28;20582;-71
2024/03/05 05:08:58;;;;;;;217.05;80.20;;;9.90;99.90;;;;;;5088049;28;20180;-70
2024/03/05 05:11:24;;;;;;;230.10;81.80;;;9.90;99.90;;;;;;5091970;28;20191;-70
2024/03/05 05:13:49;;;;;;;245.95;84.15;;;9.90;99.90;;;;;;5088581;28;20182;-68
2024/03/05 05:16:16;;;;;;;228.38;82.15;;;9.90;99.90;;;;;;5091163;28;20247;-70
2024/03/05 05:18:41;;;;;;;218.43;82.07;;;9.90;99.90;;;;;;5087066;28;20178;-69
2024/03/05 05:21:07;;;;;;;244.93;84.60;;;9.90;99.90;;;;;;5093172;28;21292;-69
2024/03/05 05:23:34;;;;;;;237.65;84.07;;;9.90;99.90;;;;;;5088162;28;20304;-70
2024/03/05 05:25:59;;;;;;;244.10;84.70;;;9.90;99.90;;;;;;5087274;28;20252;-70
2024/03/05 05:28:25;;;;;;;233.00;83.32;;;9.90;99.90;;;;;;5088220;28;20633;-70
2024/03/05 05:30:51;;;;;;;235.02;88.45;;;9.90;99.90;;;;;;5090202;28;20190;-71
2024/03/05 05:33:17;;;;;;;182.40;79.30;;;9.90;99.90;;;;;;5097090;28;21160;-70
2024/03/05 05:35:43;;;;;;;158.15;75.63;;;9.90;99.90;;;;;;5095895;28;21899;-70
2024/03/05 05:38:09;;;;;;;165.68;71.72;;;9.90;99.90;;;;;;5090754;28;20766;-71
2024/03/05 05:40:38;;;;;;;143.73;71.22;;;9.80;99.90;;;;;;5097603;28;20185;-70
2024/03/05 05:43:04;;;;;;;151.38;70.40;;;9.80;99.90;;;;;;5092413;28;20185;-70
2024/03/05 05:45:30;;;;;;;149.57;72.15;;;9.70;99.90;;;;;;5093489;28;20209;-71
2024/03/05 05:47:57;;;;;;;145.32;69.50;;;9.70;99.90;;;;;;5092255;28;20189;-70
2024/03/05 05:50:28;;;;;;;143.23;70.70;;;9.70;99.90;;;;;;5095006;28;20653;-70
2024/03/05 05:52:55;;;;;;;143.98;69.47;;;9.70;99.90;;;;;;5092951;28;20701;-70
2024/03/05 05:55:24;;;;;;;146.07;68.35;;;9.70;99.90;;;;;;5092382;28;20182;-70
2024/03/05 05:57:51;;;;;;;138.52;65.57;;;9.60;99.90;;;;;;5095789;28;20189;-71
2024/03/05 06:00:31;;;;;;;143.68;68.90;;;9.60;99.90;;;;;;5072302;28;20714;-70
2024/03/05 06:02:58;;;;;;;151.32;66.75;;;9.60;99.90;;;;;;5094984;28;20207;-70
2024/03/05 06:05:35;;;;;;;144.27;66.38;;;9.50;99.90;;;;;;5091808;28;20205;-72
2024/03/05 06:08:01;;;;;;;129.93;68.13;;;9.50;99.90;;;;;;5094170;28;20191;-70
2024/03/05 06:10:28;;;;;;;139.70;68.47;;;9.50;99.90;;;;;;5088333;28;20194;-71
2024/03/05 06:12:54;;;;;;;144.77;68.38;;;9.50;99.90;;;;;;5093139;28;20538;-70
2024/03/05 06:15:20;;;;;;;144.68;66.28;;;9.40;99.90;;;;;;5093360;27;20196;-70
2024/03/05 06:17:47;;;;;;;138.05;67.65;;;9.40;99.90;;;;;;5078750;28;20201;-69
2024/03/05 06:20:14;;;;;;;140.32;66.38;;;9.40;99.90;;;;;;5094248;28;20545;-70
2024/03/05 06:22:42;;;;;;;122.57;65.35;;;9.30;99.90;;;;;;5097311;28;20186;-71
2024/03/05 06:25:09;;;;;;;120.60;63.33;;;9.30;99.90;;;;;;5095910;28;20331;-70
2024/03/05 06:27:36;;;;;;;118.20;63.08;;;9.30;99.90;;;;;;5099778;28;20202;-71
2024/03/05 06:30:07;;;;;;;113.30;61.67;;;9.30;99.90;;;;;;5094820;28;20597;-69
2024/03/05 06:32:37;;;;;;;111.28;59.95;;;9.20;99.90;;;;;;5095233;28;20231;-71
2024/03/05 06:35:05;;;;;;;109.60;59.47;;;9.10;99.90;;;;;;5095450;28;20178;-71
2024/03/05 06:37:31;;;;;;;107.18;60.90;;;9.00;99.90;;;;;;5093864;28;20682;-71
2024/03/05 06:39:58;;;;;;;110.45;60.00;;;9.00;99.90;;;;;;5094018;28;20213;-72
2024/03/05 06:42:24;;;;;;;107.53;59.60;;;8.90;99.90;;;;;;5093457;28;20275;-71
2024/03/05 06:44:54;;;;;;;107.65;58.95;;;8.90;99.90;;;;;;5092164;28;20215;-70
2024/03/05 06:47:27;;;;;;;108.32;57.38;;;8.90;99.90;;;;;;5096988;27;20296;-71
2024/03/05 06:49:57;;;;;;;102.68;58.67;;;8.90;99.90;;;;;;5096243;28;20700;-71
2024/03/05 06:57:52;;;;;;;110.13;59.67;;;8.80;99.90;;;;;;5094758;28;20228;-70
2024/03/05 07:00:18;;;;;;;115.30;58.95;;;8.80;99.90;;;;;;5087660;28;20253;-71
2024/03/05 07:02:44;;;;;;;107.70;58.33;;;8.80;99.90;;;;;;5069879;28;20198;-70
2024/03/05 07:05:09;;;;;;;100.68;55.97;;;8.70;99.90;;;;;;5090637;28;20261;-71
2024/03/05 07:07:35;;;;;;;89.75;51.97;;;8.70;99.90;;;;;;5089774;28;20242;-70
2024/03/05 07:10:13;;;;;;;95.97;49.95;;;8.60;99.90;;;;;;5087759;28;20206;-70
2024/03/05 07:12:44;;;;;;;95.50;50.00;;;8.50;99.90;;;;;;5090971;28;20209;-74
2024/03/05 07:15:14;;;;;;;96.53;49.53;;;8.50;99.90;;;;;;5093187;28;20185;-74
2024/03/05 07:17:43;;;;;;;88.03;50.50;;;8.50;99.90;;;;;;5070062;28;21369;-74
2024/03/05 07:20:18;;;;;;;90.28;49.25;;;8.40;99.90;;;;;;5095645;28;20337;-73
2024/03/05 07:22:46;;;;;;;100.20;53.22;;;8.40;99.90;;;;;;5094047;28;20258;-74
2024/03/05 07:25:14;;;;;;;103.93;50.42;;;8.40;99.90;;;;;;5095452;28;20290;-72
2024/03/05 07:27:46;;;;;;;97.50;50.72;;;8.40;99.90;;;;;;5071075;28;20220;-71
2024/03/05 07:30:15;;;;;;;93.03;50.47;;;8.40;99.90;;;;;;5092292;28;20723;-74
2024/03/05 07:32:48;;;;;;;92.82;49.67;;;8.40;99.90;;;;;;5095129;28;20190;-71
2024/03/05 07:35:15;;;;;;;95.78;50.20;;;8.40;99.90;;;;;;5077642;28;20213;-71
2024/03/05 07:37:45;;;;;;;105.05;50.38;;;8.40;99.90;;;;;;5094042;28;20196;-72
2024/03/05 07:40:18;;;;;;;108.70;51.00;;;8.40;99.90;;;;;;5074261;28;20588;-72
2024/03/05 07:42:51;;;;;;;106.38;51.03;;;8.40;99.90;;;;;;5092708;28;20255;-71
2024/03/05 07:45:18;;;;;;;120.38;50.55;;;8.40;99.90;;;;;;5091981;28;20228;-72
2024/03/05 07:47:44;;;;;;;103.30;47.60;;;8.40;99.90;;;;;;5093336;28;20195;-71
2024/03/05 07:50:12;;;;;;;112.63;49.05;;;8.40;99.90;;;;;;5089574;28;20666;-73
2024/03/05 07:52:42;;;;;;;106.10;48.47;;;8.40;99.90;;;;;;5089270;28;20323;-70
2024/03/05 07:55:10;;;;;;;100.35;45.75;;;8.30;99.90;;;;;;5090178;28;20189;-71
2024/03/05 07:57:40;;;;;;;107.22;47.22;;;8.30;99.90;;;;;;5087800;28;20661;-70
2024/03/05 08:00:13;;;;;;;111.68;47.92;;;8.30;99.90;;;;;;5095376;28;20199;-69
2024/03/05 08:02:45;;;;;;;107.28;47.53;;;8.30;99.90;;;;;;5094648;28;20188;-73
2024/03/05 08:05:17;;;;;;;102.50;44.15;;;8.30;99.90;;;;;;5087234;28;20616;-72
2024/03/05 08:07:48;;;;;;;100.72;44.17;;;8.40;99.90;;;;;;5092300;28;20177;-70
2024/03/05 08:10:16;;;;;;;97.00;42.78;;;8.40;99.90;;;;;;5097604;28;20193;-70
2024/03/05 08:12:43;;;;;;;88.32;44.78;;;8.40;99.90;;;;;;5087722;28;20488;-71
2024/03/05 08:15:12;;;;;;;107.78;45.42;;;8.40;99.90;;;;;;5091720;28;21147;-71
2024/03/05 08:17:40;;;;;;;108.65;46.00;;;8.40;99.90;;;;;;5091883;28;21353;-70
2024/03/05 08:20:09;;;;;;;97.55;45.97;;;8.50;99.90;;;;;;5094421;28;20566;-69
2024/03/05 08:22:35;;;;;;;107.18;46.10;;;8.60;99.90;;;;;;5075482;28;20233;-71
2024/03/05 08:25:12;;;;;;;99.03;45.30;;;8.60;99.90;;;;;;5096584;28;20771;-70
2024/03/05 08:27:39;;;;;;;104.53;46.83;;;8.60;99.90;;;;;;5088512;28;20226;-69
2024/03/05 08:30:10;;;;;;;117.93;47.30;;;8.50;99.90;;;;;;5096665;28;20185;-70
2024/03/05 08:32:37;;;;;;;114.35;47.28;;;8.50;99.90;;;;;;5067163;28;20262;-71
2024/03/05 08:35:09;;;;;;;126.57;49.08;;;8.50;99.90;;;;;;5094786;28;20548;-71
2024/03/05 08:37:35;;;;;;;122.65;47.50;;;8.50;99.90;;;;;;5048884;28;20229;-71
2024/03/05 08:40:04;;;;;;;128.23;48.75;;;8.50;99.90;;;;;;5094236;28;20206;-71
2024/03/05 08:42:29;;;;;;;117.68;47.30;;;8.50;99.90;;;;;;5095482;28;20201;-70
2024/03/05 08:44:56;;;;;;;113.28;46.15;;;8.50;99.90;;;;;;5096469;28;20278;-72
2024/03/05 08:47:22;;;;;;;107.90;44.42;;;8.50;99.90;;;;;;5068440;28;20251;-70
2024/03/05 08:49:50;;;;;;;113.18;47.22;;;8.50;99.90;;;;;;5095747;28;20181;-71
2024/03/05 08:52:18;;;;;;;114.15;47.33;;;8.40;99.90;;;;;;5095487;28;21453;-69
2024/03/05 08:54:44;;;;;;;119.88;46.25;;;8.40;99.90;;;;;;5091369;28;20188;-70
2024/03/05 08:57:09;;;;;;;111.40;42.50;;;8.30;99.90;;;;;;5092323;28;20581;-70
2024/03/05 08:59:35;;;;;;;111.95;44.67;;;8.30;99.90;;;;;;5094788;28;20295;-69
2024/03/05 09:02:02;;;;;;;108.38;43.38;;;8.30;99.90;;;;;;5090258;28;20327;-70
2024/03/05 09:04:28;;;;;;;112.15;44.28;;;8.20;99.90;;;;;;5090875;28;20197;-71
2024/03/05 09:06:54;;;;;;;104.65;43.53;;;8.30;99.90;;;;;;5093009;28;20381;-70
2024/03/05 09:09:20;;;;;;;109.70;44.45;;;8.20;99.90;;;;;;5098315;28;20232;-72
2024/03/05 09:11:49;;;;;;;110.18;43.97;;;8.20;99.90;;;;;;5099379;28;20194;-71
2024/03/05 09:14:15;;;;;;;96.15;41.83;;;8.30;99.90;;;;;;5098023;28;20189;-71
2024/03/05 09:16:41;;;;;;;88.68;41.33;;;8.20;99.90;;;;;;5097444;28;20357;-71
2024/03/05 09:19:07;;;;;;;96.40;41.40;;;8.30;99.90;;;;;;5094132;28;21421;-72
2024/03/05 09:21:35;;;;;;;101.53;42.50;;;8.20;99.90;;;;;;5094815;28;20200;-70
2024/03/05 09:24:01;;;;;;;95.35;41.45;;;8.30;99.90;;;;;;5094996;28;20280;-70
2024/03/05 09:26:28;;;;;;;96.00;41.08;;;8.30;99.90;;;;;;5075109;28;20218;-70
2024/03/05 09:28:54;;;;;;;96.43;42.25;;;8.30;99.90;;;;;;5096781;28;20293;-69
2024/03/05 09:31:20;;;;;;;85.55;39.97;;;8.20;99.90;;;;;;5096504;28;20275;-69
2024/03/05 09:33:45;;;;;;;91.88;39.97;;;8.30;99.90;;;;;;5099518;28;20181;-70
2024/03/05 09:36:11;;;;;;;91.22;40.63;;;8.30;99.90;;;;;;5094342;28;20177;-71
2024/03/05 09:38:37;;;;;;;94.20;40.70;;;8.30;99.90;;;;;;5099566;28;21208;-71
2024/03/05 09:41:04;;;;;;;93.68;42.05;;;8.30;99.90;;;;;;5095036;28;20189;-70
2024/03/05 09:43:30;;;;;;;89.82;41.35;;;8.40;99.90;;;;;;5096057;28;20194;-71
2024/03/05 09:46:04;;;;;;;85.82;40.22;;;8.40;99.90;;;;;;5096532;28;20273;-71
2024/03/05 09:48:32;;;;;;;84.03;40.50;;;8.40;99.90;;;;;;5095060;28;20268;-72
2024/03/05 09:50:58;;;;;;;83.28;37.70;;;8.40;99.90;;;;;;5097018;28;20755;-68
2024/03/05 09:53:25;;;;;;;82.38;37.20;;;8.40;99.90;;;;;;5095762;28;20181;-71
2024/03/05 09:55:53;;;;;;;82.28;38.72;;;8.30;99.90;;;;;;5097145;28;20493;-70
2024/03/05 09:58:33;;;;;;;80.13;38.38;;;8.30;99.90;;;;;;5092883;28;20523;-71
2024/03/05 10:01:00;;;;;;;71.85;36.95;;;8.30;99.90;;;;;;5092269;28;20185;-71
2024/03/05 10:03:26;;;;;;;76.57;39.25;;;8.20;99.90;;;;;;5095751;28;20193;-71
2024/03/05 10:05:53;;;;;;;72.25;36.60;;;8.30;99.90;;;;;;5076411;28;20246;-69
2024/03/05 10:08:18;;;;;;;70.82;36.95;;;8.30;99.90;;;;;;5100041;28;20193;-72
2024/03/05 10:10:46;;;;;;;72.65;34.60;;;8.20;99.90;;;;;;5092766;28;20603;-69
2024/03/05 10:13:12;;;;;;;54.05;32.08;;;8.30;99.90;;;;;;5095373;28;20193;-70
2024/03/05 10:15:42;;;;;;;51.00;29.92;;;8.20;99.90;;;;;;5091610;28;20194;-70
2024/03/05 10:18:08;;;;;;;52.78;29.83;;;8.30;99.90;;;;;;5093185;28;20193;-69
2024/03/05 10:20:36;;;;;;;51.47;29.50;;;8.40;99.90;;;;;;5095451;28;20185;-70
2024/03/05 10:23:05;;;;;;;51.03;30.40;;;8.40;99.90;;;;;;5093097;28;20236;-70
2024/03/05 10:25:34;;;;;;;48.13;30.58;;;8.40;99.90;;;;;;5093871;28;20319;-71
2024/03/05 10:28:01;;;;;;;53.75;30.77;;;8.50;99.90;;;;;;5091761;28;20189;-70
2024/03/05 10:30:31;;;;;;;48.50;29.73;;;8.50;99.90;;;;;;5094031;28;20564;-72
2024/03/05 10:33:02;;;;;;;53.08;30.88;;;8.50;99.90;;;;;;5094312;28;20204;-70
2024/03/05 10:35:33;;;;;;;44.35;28.15;;;8.60;99.90;;;;;;5098369;28;20296;-69
2024/03/05 10:38:03;;;;;;;44.05;27.08;;;8.50;99.90;;;;;;5092742;28;20181;-69
2024/03/05 10:40:34;;;;;;;45.25;26.33;;;8.60;99.90;;;;;;5100106;28;20639;-70
2024/03/05 10:43:05;;;;;;;37.35;24.30;;;8.50;99.90;;;;;;5072993;28;20540;-70
2024/03/05 10:45:39;;;;;;;42.35;25.70;;;8.50;99.90;;;;;;5094430;28;20209;-70
2024/03/05 10:48:14;;;;;;;40.83;25.88;;;8.40;99.90;;;;;;5092426;28;20268;-69
2024/03/05 10:50:43;;;;;;;41.38;26.88;;;8.40;99.90;;;;;;5094796;28;20192;-71
2024/03/05 10:53:11;;;;;;;38.95;25.55;;;8.40;99.90;;;;;;5069030;28;20283;-70
2024/03/05 10:55:37;;;;;;;39.47;25.92;;;8.40;99.90;;;;;;5094313;28;20616;-71
2024/03/05 11:00:39;;;;;;;48.75;27.60;;;8.40;99.90;;;;;;5095903;28;21739;-71
2024/03/05 11:03:10;;;;;;;43.58;27.65;;;8.40;99.90;;;;;;5107627;27;20197;-71
2024/03/05 11:05:57;;;;;;;40.58;26.85;;;8.50;99.90;;;;;;5090036;28;20228;-71
2024/03/05 11:08:24;;;;;;;41.40;25.95;;;8.50;99.90;;;;;;5067133;28;20242;-73
2024/03/05 11:11:14;;;;;;;42.67;27.23;;;8.50;99.90;;;;;;5090694;28;20233;-71
2024/03/05 11:13:42;;;;;;;44.13;27.05;;;8.50;99.90;;;;;;5094182;28;20180;-71
2024/03/05 11:16:08;;;;;;;42.75;27.33;;;8.50;99.90;;;;;;5093471;28;20621;-71
2024/03/05 11:18:36;;;;;;;43.92;27.23;;;8.60;99.90;;;;;;5095144;28;20263;-72
2024/03/05 11:21:13;;;;;;;47.97;29.55;;;8.70;99.90;;;;;;5088477;28;20190;-71
2024/03/05 11:23:52;;;;;;;46.67;29.27;;;8.70;99.90;;;;;;5096649;28;20272;-69
2024/03/05 11:26:22;;;;;;;48.92;29.05;;;8.70;99.90;;;;;;5096572;28;20208;-71
2024/03/05 11:29:02;;;;;;;52.97;32.15;;;8.80;99.90;;;;;;5095040;28;20249;-70
2024/03/05 11:31:28;;;;;;;50.78;30.83;;;8.80;99.90;;;;;;5091157;28;20182;-70
2024/03/05 11:34:09;;;;;;;45.58;29.33;;;8.80;99.90;;;;;;5093062;28;20177;-70
2024/03/05 11:36:34;;;;;;;52.88;31.27;;;8.80;99.90;;;;;;5057133;28;20193;-70
2024/03/05 11:39:09;;;;;;;51.70;32.88;;;8.90;99.90;;;;;;5097288;28;20185;-72
2024/03/05 11:41:42;;;;;;;52.30;31.60;;;8.80;99.90;;;;;;5094015;28;20188;-71
2024/03/05 11:44:12;;;;;;;59.15;32.90;;;8.90;99.90;;;;;;5093773;28;20187;-71
2024/03/05 11:46:48;;;;;;;53.88;31.38;;;8.80;99.90;;;;;;5096530;28;20208;-71
2024/03/05 11:49:15;;;;;;;56.38;34.08;;;8.90;99.90;;;;;;5095207;28;20563;-70
2024/03/05 11:51:43;;;;;;;57.58;33.85;;;8.90;99.90;;;;;;5091935;28;20189;-72
2024/03/05 11:54:11;;;;;;;53.38;33.72;;;8.90;99.90;;;;;;5095597;28;20189;-70
2024/03/05 11:56:39;;;;;;;53.97;33.03;;;8.80;99.90;;;;;;5070329;28;20201;-71
2024/03/05 11:59:05;;;;;;;55.63;32.53;;;8.90;99.90;;;;;;5092467;28;20186;-71
2024/03/05 12:01:32;;;;;;;49.78;32.05;;;9.00;99.90;;;;;;5089428;28;20214;-70
2024/03/05 12:04:06;;;;;;;49.80;30.98;;;8.90;99.90;;;;;;5095732;28;20197;-71
2024/03/05 12:06:35;;;;;;;48.45;30.85;;;9.00;99.90;;;;;;5091391;28;20320;-72
2024/03/05 12:09:21;;;;;;;47.88;30.80;;;9.00;99.90;;;;;;5093352;28;20185;-70
2024/03/05 12:12:05;;;;;;;47.97;31.55;;;8.90;99.90;;;;;;5090597;28;20193;-70
2024/03/05 12:14:34;;;;;;;44.50;28.92;;;8.80;99.90;;;;;;5088648;28;20177;-72
2024/03/05 12:17:03;;;;;;;48.70;30.00;;;8.80;99.90;;;;;;5095790;28;20177;-71
2024/03/05 12:19:30;;;;;;;42.85;27.23;;;8.80;99.90;;;;;;5090983;28;20598;-70
2024/03/05 12:21:56;;;;;;;40.47;26.17;;;8.80;99.90;;;;;;5090889;28;20181;-71
2024/03/05 12:24:23;;;;;;;42.00;26.40;;;8.80;99.90;;;;;;5093802;28;20696;-70
2024/03/05 12:26:50;;;;;;;42.83;26.00;;;8.80;99.90;;;;;;5093933;28;20186;-71
2024/03/05 12:29:33;;;;;;;38.13;27.33;;;8.80;99.90;;;;;;5089568;28;21024;-72
2024/03/05 12:32:07;;;;;;;38.67;25.30;;;8.80;99.90;;;;;;5072048;28;20197;-69
2024/03/05 12:34:34;;;;;;;38.42;26.70;;;8.80;99.90;;;;;;5091086;28;20189;-71
2024/03/05 12:37:00;;;;;;;38.75;26.23;;;8.80;99.90;;;;;;5096772;28;20204;-70
2024/03/05 12:39:26;;;;;;;41.42;27.42;;;8.80;99.90;;;;;;5092657;28;20182;-69
2024/03/05 12:42:13;;;;;;;38.80;25.90;;;8.80;99.90;;;;;;5098427;28;20207;-72